Hlavní strana
METAR-TAF:

METAR-TAF

Letiště :

Kristianstad, Švédsko

zeměpisná šířka: 55-55N, zeměpisná délka: 014-05E, výška: 23 m

Aktuální stav počasí

Zpráva byla vytvořena před 11 minutami, v 23:50 UTC
Severovýchodní vítr 12 kt
Teplota 2°C
Vlhkost vzduchu 93%
Tlak 1031 hPa
Viditelnost 10 km a více

METAR: ESMK 192350Z AUTO 05012KT 9999 FEW019/// 02/01 Q1031

Čas: 01:01 (00:01 UTC)

Předpověď počasí

Zpráva byla vytvořena před 6 hodinami a 58 minutami, v 17:03 UTC
Předpověď platná od 19 v 18 UTC do 19 v 21 UTC
Východoseverovýchodní vítr 10 kt
Viditelnost 10 km a více
Oblačno až skoro zataženo ve výšce 2000 ft
Dočasný
od 19 v 18 UTC do 19 v 21 UTC
Oblačno až skoro zataženo ve výšce 1200 ft, Vertikální cumulus.

TAF: ESMK 191703Z 1918/1921 06010KT 9999 BKN020 TEMPO 1918/1921 BKN012TCU

Stav a předpovědi počasí z více než 4 000 letišť (zprávy METAR a TAF).

Červené a žluté tečky na mapě představují dostupné meteorologické stanice.

Když kurzor umístíte na tečku, zobrazí se název stanice.

Pak kliknutím zobrazíte stav a předpověď počasí.

Chcete-li změnit mapu, kliknutím na zelené tlačítko se znaménkem +mapu přiblížíte, kliknutím na zelené tlačítko se znaménkem – mapu oddálíte a kliknutím na zelené šipky přejdete na sousední mapy.


METAR-TAF: